createdAt,value
2022-10-11T00:03:34.547Z,36.88
2022-10-11T00:08:37.569Z,36.88
2022-10-11T00:13:40.481Z,36.72
2022-10-11T00:18:44.729Z,37.55
2022-10-11T00:23:47.699Z,36.45
2022-10-11T00:28:52.770Z,36.33
2022-10-11T00:33:57.122Z,37.33
2022-10-11T00:39:00.415Z,37.60
2022-10-11T00:44:15.709Z,37.60
2022-10-11T00:49:25.455Z,37.15
2022-10-11T00:54:31.373Z,37.42
2022-10-11T00:59:39.297Z,37.13
2022-10-11T01:04:43.756Z,37.45
2022-10-11T01:09:46.987Z,37.17
2022-10-11T01:15:06.199Z,38.55
2022-10-11T01:20:30.794Z,37.45
2022-10-11T01:25:41.878Z,36.97
2022-10-11T01:30:47.328Z,37.40
2022-10-11T01:35:57.294Z,36.70
2022-10-11T01:41:07.475Z,37.00
2022-10-11T01:46:12.755Z,37.63
2022-10-11T01:51:16.796Z,37.17
2022-10-11T01:56:31.117Z,36.80
2022-10-11T02:01:49.549Z,37.22
2022-10-11T02:06:59.236Z,37.78
2022-10-11T02:12:07.524Z,37.00
2022-10-11T02:17:16.395Z,36.92
2022-10-11T02:22:24.061Z,37.00
2022-10-11T02:27:31.625Z,37.08
2022-10-11T02:32:40.200Z,41.90
2022-10-11T02:37:49.153Z,38.05
2022-10-11T02:42:59.409Z,37.78
2022-10-11T02:48:04.471Z,37.80
2022-10-11T02:53:08.615Z,37.33
2022-10-11T02:58:11.587Z,37.55
2022-10-11T03:03:15.999Z,37.20
2022-10-11T03:08:19.312Z,36.65
2022-10-11T03:13:22.721Z,37.53
2022-10-11T03:18:27.227Z,37.05
2022-10-11T03:23:30.272Z,37.47
2022-10-11T03:28:33.257Z,37.58
2022-10-11T03:33:38.686Z,38.33
2022-10-11T03:38:41.743Z,38.00
2022-10-11T03:43:44.710Z,37.90
2022-10-11T03:48:49.571Z,37.13
2022-10-11T03:53:52.684Z,37.17
2022-10-11T03:58:55.855Z,41.28
2022-10-11T04:04:00.393Z,37.45
2022-10-11T04:09:03.587Z,37.78
2022-10-11T04:14:07.839Z,37.65
2022-10-11T04:19:12.175Z,37.78
2022-10-11T04:24:15.222Z,38.70
2022-10-11T04:29:18.253Z,37.10
2022-10-11T04:34:22.586Z,37.83
2022-10-11T04:39:25.964Z,37.60
2022-10-11T04:44:29.260Z,36.55
2022-10-11T04:49:33.553Z,37.88
2022-10-11T04:54:36.677Z,37.42
2022-10-11T04:59:39.607Z,36.35
2022-10-11T05:04:43.934Z,38.35
2022-10-11T05:09:46.994Z,38.85
2022-10-11T05:14:49.962Z,38.22
2022-10-11T05:19:54.482Z,38.92
2022-10-11T05:24:57.482Z,37.60
2022-10-11T05:30:00.428Z,37.75
2022-10-11T05:35:05.400Z,38.97
2022-10-11T05:40:09.597Z,38.13
2022-10-11T05:45:12.522Z,37.33
2022-10-11T05:50:19.687Z,38.83
2022-10-11T05:55:26.370Z,39.88
2022-10-11T06:00:29.557Z,42.03
2022-10-11T06:05:35.863Z,41.15
2022-10-11T06:10:39.755Z,39.15
2022-10-11T06:15:42.737Z,39.03
2022-10-11T06:20:47.006Z,39.90
2022-10-11T06:25:57.408Z,40.30
2022-10-11T06:31:00.839Z,39.85
2022-10-11T06:36:07.892Z,38.70
2022-10-11T06:41:12.325Z,43.75
2022-10-11T06:46:15.268Z,42.90
2022-10-11T06:51:21.694Z,40.20
2022-10-11T06:56:26.208Z,44.17
2022-10-11T07:01:29.234Z,43.90
2022-10-11T07:06:36.655Z,45.90
2022-10-11T07:11:39.805Z,40.63
2022-10-11T07:16:42.723Z,39.60
2022-10-11T07:21:47.039Z,41.22
2022-10-11T07:26:50.043Z,41.75
2022-10-11T07:31:53.169Z,41.63
2022-10-11T07:36:57.590Z,41.95
2022-10-11T07:42:00.573Z,43.03
2022-10-11T07:47:07.722Z,42.10
2022-10-11T07:52:14.769Z,43.90
2022-10-11T07:57:18.703Z,43.38
2022-10-11T08:02:21.815Z,44.00
2022-10-11T08:07:26.710Z,43.10
2022-10-11T08:12:29.709Z,41.72
2022-10-11T08:17:32.647Z,40.75
2022-10-11T08:22:36.946Z,41.67
2022-10-11T08:27:39.954Z,40.65
2022-10-11T08:32:42.914Z,41.78
2022-10-11T08:37:47.232Z,40.08
2022-10-11T08:42:55.864Z,39.80
2022-10-11T08:48:08.083Z,38.13
2022-10-11T08:53:21.375Z,37.67
2022-10-11T08:58:33.706Z,38.10
2022-10-11T09:03:40.558Z,37.78
2022-10-11T09:09:00.216Z,37.00
2022-10-11T09:14:40.323Z,36.83
2022-10-11T09:20:03.635Z,36.65
2022-10-11T09:25:19.992Z,36.60
2022-10-11T09:30:23.151Z,36.75
2022-10-11T09:35:26.201Z,37.05
2022-10-11T09:40:46.275Z,37.55
2022-10-11T09:45:49.850Z,37.67
2022-10-11T09:50:55.644Z,37.15
2022-10-11T09:56:05.516Z,36.97
2022-10-11T10:01:10.088Z,37.13
2022-10-11T10:06:17.822Z,37.17
2022-10-11T10:11:22.754Z,37.10
2022-10-11T10:16:27.935Z,37.13
2022-10-11T10:21:35.013Z,36.72
2022-10-11T10:26:39.994Z,36.80
2022-10-11T10:37:26.205Z,37.55
2022-10-11T10:42:30.738Z,37.25
2022-10-11T10:47:50.803Z,36.47
2022-10-11T10:53:11.076Z,36.40
2022-10-11T10:58:41.424Z,37.25
2022-10-11T11:03:49.476Z,37.40
2022-10-11T11:09:04.277Z,37.38
2022-10-11T11:14:18.517Z,37.08
2022-10-11T11:19:36.130Z,36.95
2022-10-11T11:24:47.801Z,37.38
2022-10-11T11:30:01.265Z,36.97
2022-10-11T11:35:10.719Z,37.90
2022-10-11T11:40:18.898Z,37.05
2022-10-11T11:45:27.099Z,37.80
2022-10-11T11:50:35.720Z,37.15
2022-10-11T11:55:48.256Z,37.75
2022-10-11T12:00:58.737Z,37.58
2022-10-11T12:06:23.063Z,38.05
2022-10-11T12:11:34.526Z,37.85
2022-10-11T12:17:06.896Z,37.85
2022-10-11T12:27:52.195Z,37.35
2022-10-11T12:33:06.434Z,37.72
2022-10-11T12:38:18.825Z,37.15
2022-10-11T12:43:37.163Z,37.67
2022-10-11T12:48:50.107Z,37.92
2022-10-11T12:54:30.973Z,38.00
2022-10-11T12:59:42.482Z,37.72
2022-10-11T13:04:45.392Z,39.15
2022-10-11T13:09:49.298Z,38.10
2022-10-11T13:15:00.584Z,38.42
2022-10-11T13:20:10.358Z,38.15
2022-10-11T13:25:18.008Z,38.78
2022-10-11T13:30:28.461Z,38.97
2022-10-11T13:35:33.980Z,38.90
2022-10-11T13:40:38.534Z,38.78
2022-10-11T13:45:43.170Z,39.38
2022-10-11T13:50:52.124Z,39.20
2022-10-11T13:55:58.908Z,39.67
2022-10-11T14:01:05.793Z,39.30
2022-10-11T14:06:14.905Z,38.55
2022-10-11T14:11:34.564Z,39.15
2022-10-11T14:16:38.823Z,39.67
2022-10-11T14:21:52.992Z,38.88
2022-10-11T14:26:59.052Z,39.75
2022-10-11T14:32:06.589Z,39.33
2022-10-11T14:37:13.513Z,39.25
2022-10-11T14:42:16.783Z,39.78
2022-10-11T14:47:21.233Z,39.53
2022-10-11T14:52:24.180Z,39.53
2022-10-11T14:57:27.465Z,39.92
2022-10-11T15:02:31.857Z,39.97
2022-10-11T15:07:34.751Z,38.97
2022-10-11T15:12:37.738Z,39.03
2022-10-11T15:17:41.963Z,39.33
2022-10-11T15:22:44.944Z,39.67
2022-10-11T15:27:48.233Z,39.78
2022-10-11T15:32:52.975Z,39.83
2022-10-11T15:37:58.128Z,40.20
2022-10-11T15:43:03.099Z,40.80
2022-10-11T15:48:07.686Z,40.28
2022-10-11T15:53:13.569Z,40.28
2022-10-11T15:58:18.917Z,39.58
2022-10-11T16:03:26.620Z,40.17
2022-10-11T16:08:29.562Z,40.60
2022-10-11T16:13:32.611Z,39.58
2022-10-11T16:18:36.980Z,41.05
2022-10-11T16:23:40.173Z,40.72
2022-10-11T16:28:43.574Z,41.25
2022-10-11T16:33:48.670Z,40.75
2022-10-11T16:38:51.629Z,40.70
2022-10-11T16:43:55.714Z,41.75
2022-10-11T16:49:00.187Z,40.97
2022-10-11T16:54:03.174Z,39.88
2022-10-11T16:59:06.124Z,40.97
2022-10-11T17:04:12.448Z,40.53
2022-10-11T17:09:15.957Z,41.88
2022-10-11T17:14:19.278Z,41.05
2022-10-11T17:19:24.586Z,40.35
2022-10-11T17:24:27.596Z,40.90
2022-10-11T17:29:31.748Z,41.75
2022-10-11T17:34:35.999Z,39.42
2022-10-11T17:39:38.957Z,40.67
2022-10-11T17:44:42.153Z,39.30
2022-10-11T17:49:46.433Z,40.13
2022-10-11T17:54:49.361Z,40.00
2022-10-11T17:59:52.274Z,39.67
2022-10-11T18:04:56.538Z,41.50
2022-10-11T18:10:05.072Z,40.50
2022-10-11T18:15:11.521Z,39.63
2022-10-11T18:20:15.879Z,41.58
2022-10-11T18:25:18.826Z,41.35
2022-10-11T18:30:21.774Z,39.92
2022-10-11T18:35:26.066Z,39.15
2022-10-11T18:40:28.993Z,40.53
2022-10-11T18:45:32.034Z,41.03
2022-10-11T18:50:36.373Z,40.00
2022-10-11T18:55:39.326Z,40.85
2022-10-11T19:00:42.248Z,40.75
2022-10-11T19:05:46.493Z,42.42
2022-10-11T19:10:49.403Z,41.92
2022-10-11T19:15:52.351Z,41.35
2022-10-11T19:20:56.632Z,41.13
2022-10-11T19:25:59.621Z,41.08
2022-10-11T19:31:04.097Z,40.85
2022-10-11T19:36:13.627Z,42.30
2022-10-11T19:41:20.452Z,42.47
2022-10-11T19:46:38.356Z,42.33
2022-10-11T19:51:48.031Z,41.38
2022-10-11T19:56:50.902Z,40.08
2022-10-11T20:02:00.550Z,39.47
2022-10-11T20:07:04.828Z,39.72
2022-10-11T20:12:08.282Z,39.35
2022-10-11T20:17:11.416Z,40.35
2022-10-11T20:22:15.647Z,40.70
2022-10-11T20:27:18.528Z,39.55
2022-10-11T20:32:21.434Z,39.90
2022-10-11T20:37:25.705Z,40.70
2022-10-11T20:42:29.991Z,39.10
2022-10-11T20:47:33.670Z,40.10
2022-10-11T20:52:38.066Z,40.17
2022-10-11T20:57:40.968Z,39.58
2022-10-11T21:02:43.976Z,41.00
2022-10-11T21:07:50.227Z,40.25
2022-10-11T21:12:53.138Z,40.13
2022-10-11T21:17:56.100Z,40.13
2022-10-11T21:23:00.410Z,39.92
2022-10-11T21:28:04.012Z,39.50
2022-10-11T21:33:06.972Z,39.30
2022-10-11T21:38:12.474Z,39.05
2022-10-11T21:43:15.512Z,39.78
2022-10-11T21:48:18.427Z,38.88
2022-10-11T21:53:23.058Z,39.20
2022-10-11T21:58:26.245Z,39.08
2022-10-11T22:03:29.144Z,38.83
2022-10-11T22:08:33.922Z,38.60
2022-10-11T22:13:37.115Z,38.17
2022-10-11T22:18:41.316Z,38.83
2022-10-11T22:23:48.274Z,38.08
2022-10-11T22:28:51.434Z,38.42
2022-10-11T22:33:55.612Z,38.88
2022-10-11T22:38:59.852Z,37.97
2022-10-11T22:44:02.833Z,37.30
2022-10-11T22:49:05.869Z,38.10
2022-10-11T22:54:10.120Z,37.53
2022-10-11T22:59:13.022Z,37.10
2022-10-11T23:04:17.578Z,37.10
2022-10-11T23:09:21.852Z,38.03
2022-10-11T23:14:24.828Z,37.28
2022-10-11T23:19:27.740Z,36.65
2022-10-11T23:24:31.992Z,36.72
2022-10-11T23:29:35.114Z,37.75
2022-10-11T23:34:38.389Z,36.85
2022-10-11T23:39:42.714Z,37.38
2022-10-11T23:44:45.779Z,36.65
2022-10-11T23:49:48.694Z,37.05
2022-10-11T23:54:52.936Z,37.00
2022-10-11T23:59:55.994Z,36.40
